Acosta, Pennsylvania
Current Conditions -  °F | °C
As of 11:55 PM on Friday 19 Dec 2014 (Local Time) from K2G9 Reporting Station
Overcast Overcast  
Wind Chill: 12°   Ceiling: 1800
Heat Index: 23°   Visibility: 10mi
Dew Point: 18°   Wind: 10mph
Humidity: 80%   Direction: 310°NW
Pressure: 30.17"   Gusts: NA
Location:  40.11°N, 79.07°W
Report Text: K2G9 200455Z AUTO 31009KT 10SM OVC018 M05/M08 A3017 RMK AO2
Loading
Personal Weather Stations






























Interactive Weather Map New forecast layout! Learn more

10-Day Weather Forecast

Advertisements
Track Severe Weather on mobile